Time;durP1;ratioP1;P1;durP2;ratioP2;P2;SDS_P1;SDS_P2;PMS_P1;PMS_P2;Temp;Humidity;BMP_temperature;BMP_pressure;BME280_temperature;BME280_humidity;BME280_pressure;Samples;Min_cycle;Max_cycle;Signal;HPM_P1;HPM_P2
2023/07/08 00:00:47;;;;;;;13.02;4.90;;;42.10;14.30;;;;;;5074276;28;20066;-62
2023/07/08 00:03:15;;;;;;;11.02;4.05;;;41.80;14.40;;;;;;5072354;28;20021;-61
2023/07/08 00:05:42;;;;;;;9.32;4.10;;;41.80;13.40;;;;;;5068020;28;20058;-55
2023/07/08 00:08:19;;;;;;;9.38;3.90;;;41.60;13.70;;;;;;5069423;28;20464;-60
2023/07/08 00:10:46;;;;;;;6.85;3.60;;;41.50;13.10;;;;;;5068232;28;20020;-58
2023/07/08 00:13:13;;;;;;;17.80;4.43;;;41.50;13.40;;;;;;5068116;28;20024;-62
2023/07/08 00:15:40;;;;;;;7.15;4.63;;;41.50;13.30;;;;;;4901236;22;20102;-55
2023/07/08 00:18:16;;;;;;;10.82;3.90;;;41.50;13.60;;;;;;5073860;28;20120;-60
2023/07/08 00:20:44;;;;;;;;;;;41.40;13.50;;;;;;5071681;28;20104;-61
2023/07/08 00:23:11;;;;;;;13.68;4.45;;;41.30;13.40;;;;;;5078292;28;19982;-60
2023/07/08 00:25:38;;;;;;;9.85;5.20;;;41.30;13.20;;;;;;5077315;28;20372;-58
2023/07/08 00:28:13;;;;;;;9.10;4.07;;;41.30;14.90;;;;;;5074925;28;20487;-60
2023/07/08 00:30:40;;;;;;;7.40;3.90;;;41.40;13.00;;;;;;5077169;28;20024;-58
2023/07/08 00:33:07;;;;;;;9.88;4.45;;;41.30;13.90;;;;;;5072440;28;20024;-59
2023/07/08 00:35:36;;;;;;;7.30;4.10;;;41.30;13.90;;;;;;5068543;28;20021;-56
2023/07/08 00:38:16;;;;;;;9.32;4.00;;;41.20;13.60;;;;;;5070758;28;20052;-56
2023/07/08 00:41:11;;;;;;;7.97;3.40;;;41.20;13.40;;;;;;5074457;28;20079;-61
2023/07/08 00:43:51;;;;;;;7.65;3.88;;;41.10;14.40;;;;;;5072298;28;20033;-60
2023/07/08 00:46:30;;;;;;;8.32;3.50;;;41.10;13.40;;;;;;5073122;28;20052;-58
2023/07/08 00:49:08;;;;;;;8.50;3.72;;;40.90;12.90;;;;;;5070541;28;20388;-61
2023/07/08 00:51:41;;;;;;;11.48;4.13;;;40.90;13.60;;;;;;5060524;28;20394;-60
2023/07/08 00:54:15;;;;;;;10.35;3.63;;;40.90;14.40;;;;;;5073223;28;20028;-61
2023/07/08 00:56:59;;;;;;;8.02;3.55;;;40.80;13.60;;;;;;5069662;28;20016;-59
2023/07/08 00:59:32;;;;;;;8.18;3.45;;;40.70;13.70;;;;;;5075017;28;20458;-60
2023/07/08 01:02:01;;;;;;;12.35;3.63;;;40.70;14.40;;;;;;5076675;28;20069;-62
2023/07/08 01:04:43;;;;;;;7.22;3.47;;;40.60;14.00;;;;;;5083776;28;20012;-64
2023/07/08 01:07:10;;;;;;;11.38;3.15;;;40.50;14.60;;;;;;5057905;28;20471;-67
2023/07/08 01:09:46;;;;;;;17.13;4.45;;;40.30;13.90;;;;;;5075665;28;20518;-63
2023/07/08 01:12:18;;;;;;;15.18;3.63;;;40.30;14.30;;;;;;5074216;28;20012;-60
2023/07/08 01:14:47;;;;;;;21.80;4.95;;;40.20;14.40;;;;;;5070705;28;20013;-60
2023/07/08 01:17:14;;;;;;;9.38;3.13;;;40.20;14.40;;;;;;5006282;28;1928691;-55
2023/07/08 01:19:44;;;;;;;9.82;3.30;;;40.20;14.80;;;;;;5072912;28;20107;-63
2023/07/08 01:22:11;;;;;;;12.80;3.67;;;40.20;15.00;;;;;;5079588;28;20453;-61
2023/07/08 01:24:43;;;;;;;11.50;3.58;;;40.00;15.10;;;;;;5072623;28;20533;-62
2023/07/08 01:27:14;;;;;;;15.18;3.85;;;40.00;15.60;;;;;;5077355;28;20073;-60
2023/07/08 01:29:41;;;;;;;10.30;3.45;;;39.90;15.10;;;;;;5079046;28;20017;-62
2023/07/08 01:32:13;;;;;;;14.20;3.95;;;39.80;15.10;;;;;;5077521;28;20024;-64
2023/07/08 01:34:40;;;;;;;18.08;4.07;;;39.70;15.00;;;;;;5079576;28;20024;-61
2023/07/08 01:37:11;;;;;;;13.70;3.42;;;39.60;15.10;;;;;;5079007;28;20473;-63
2023/07/08 01:39:37;;;;;;;12.05;3.75;;;39.40;15.80;;;;;;5077990;28;20119;-63
2023/07/08 01:42:04;;;;;;;12.50;3.75;;;39.30;15.50;;;;;;5078807;28;20023;-59
2023/07/08 01:44:33;;;;;;;11.32;3.65;;;39.20;15.80;;;;;;5081797;28;20371;-62
2023/07/08 01:47:07;;;;;;;15.15;3.75;;;39.10;15.40;;;;;;5074198;28;20021;-62
2023/07/08 01:49:36;;;;;;;18.83;4.47;;;39.10;15.80;;;;;;5075121;28;20043;-63
2023/07/08 01:52:03;;;;;;;10.35;3.92;;;39.00;15.90;;;;;;5075518;28;20009;-64
2023/07/08 01:54:30;;;;;;;15.18;4.57;;;38.90;15.70;;;;;;5074061;28;20051;-59
2023/07/08 01:56:57;;;;;;;11.07;4.13;;;38.80;15.70;;;;;;5079956;28;20024;-59
2023/07/08 01:59:24;;;;;;;16.33;4.07;;;38.70;15.60;;;;;;5074175;28;20536;-62
2023/07/08 02:01:54;;;;;;;8.32;3.53;;;38.50;16.00;;;;;;5071321;28;20040;-62
2023/07/08 02:04:22;;;;;;;7.85;3.88;;;38.50;16.10;;;;;;5072159;28;20509;-63
2023/07/08 02:06:54;;;;;;;16.02;3.95;;;38.30;16.60;;;;;;5068566;28;20047;-61
2023/07/08 02:09:21;;;;;;;13.05;3.72;;;38.20;16.30;;;;;;5073090;28;20050;-63
2023/07/08 02:11:48;;;;;;;14.30;4.05;;;38.20;16.50;;;;;;5075026;28;20133;-61
2023/07/08 02:14:14;;;;;;;9.55;3.70;;;38.10;16.70;;;;;;5071743;28;20374;-61
2023/07/08 02:16:41;;;;;;;11.02;3.70;;;38.00;16.90;;;;;;5069531;28;20603;-56
2023/07/08 02:19:07;;;;;;;10.20;3.65;;;37.90;17.20;;;;;;5072102;28;20427;-60
2023/07/08 02:21:33;;;;;;;18.65;3.83;;;37.80;17.40;;;;;;5080164;28;20100;-61
2023/07/08 02:24:01;;;;;;;22.65;4.22;;;37.60;17.80;;;;;;5080299;28;20038;-62
2023/07/08 02:26:27;;;;;;;11.27;4.03;;;37.60;17.60;;;;;;5076640;28;20057;-62
2023/07/08 02:28:54;;;;;;;18.73;4.05;;;37.50;17.50;;;;;;5070586;28;20059;-56
2023/07/08 02:31:24;;;;;;;13.48;3.08;;;37.40;17.50;;;;;;5073467;28;20705;-62
2023/07/08 02:33:51;;;;;;;9.55;2.67;;;37.30;17.70;;;;;;5073844;28;20086;-62
2023/07/08 02:36:18;;;;;;;16.65;3.25;;;37.20;17.50;;;;;;5072268;28;20041;-60
2023/07/08 02:38:44;;;;;;;16.52;3.30;;;37.10;17.70;;;;;;5070381;28;20474;-60
2023/07/08 02:41:11;;;;;;;13.10;4.15;;;37.00;17.60;;;;;;5071991;28;20063;-61
2023/07/08 02:43:38;;;;;;;10.05;3.60;;;37.00;17.40;;;;;;5076273;28;20041;-61
2023/07/08 02:46:05;;;;;;;15.93;4.20;;;36.90;17.10;;;;;;5078716;28;20064;-57
2023/07/08 02:48:31;;;;;;;16.17;3.80;;;36.80;17.40;;;;;;5071823;28;20060;-61
2023/07/08 02:51:04;;;;;;;10.43;3.97;;;36.70;17.10;;;;;;5074303;28;20093;-61
2023/07/08 02:53:31;;;;;;;24.08;3.92;;;36.70;17.40;;;;;;5070625;28;20520;-60
2023/07/08 02:55:57;;;;;;;17.15;4.00;;;36.60;16.90;;;;;;5073167;28;20058;-62
2023/07/08 02:58:25;;;;;;;8.85;3.13;;;36.50;17.10;;;;;;5078841;28;20136;-62
2023/07/08 03:01:00;;;;;;;10.25;3.58;;;36.40;16.40;;;;;;5072689;28;20045;-60
2023/07/08 03:03:31;;;;;;;13.52;3.80;;;36.40;16.00;;;;;;5068906;28;20046;-60
2023/07/08 03:06:00;;;;;;;15.20;3.78;;;36.40;15.80;;;;;;5070199;28;20446;-60
2023/07/08 03:08:27;;;;;;;11.93;3.92;;;36.30;15.80;;;;;;5070303;28;20057;-59
2023/07/08 03:11:03;;;;;;;11.32;3.47;;;36.30;15.70;;;;;;5069450;28;20076;-60
2023/07/08 03:13:30;;;;;;;9.98;3.58;;;36.20;15.50;;;;;;5070977;28;20067;-59
2023/07/08 03:16:01;;;;;;;8.68;3.53;;;36.20;15.60;;;;;;5069068;28;20074;-60
2023/07/08 03:18:28;;;;;;;11.57;3.75;;;36.20;15.40;;;;;;5070135;28;20077;-62
2023/07/08 03:20:57;;;;;;;5.55;3.20;;;36.10;15.60;;;;;;5068197;28;20050;-61
2023/07/08 03:23:24;;;;;;;13.57;3.30;;;36.10;15.40;;;;;;5070856;28;20130;-62
2023/07/08 03:25:52;;;;;;;10.02;3.67;;;36.00;15.40;;;;;;5069648;28;20045;-59
2023/07/08 03:28:18;;;;;;;15.82;3.50;;;36.00;15.30;;;;;;5072131;28;20054;-61
2023/07/08 03:30:45;;;;;;;14.05;3.50;;;35.90;15.50;;;;;;5074912;28;20058;-59
2023/07/08 03:33:12;;;;;;;13.80;3.90;;;35.90;15.70;;;;;;5077055;28;20047;-61
2023/07/08 03:35:39;;;;;;;15.18;3.42;;;35.80;16.00;;;;;;5075377;28;20050;-61
2023/07/08 03:38:05;;;;;;;14.98;3.35;;;35.70;15.90;;;;;;5074767;28;21017;-61
2023/07/08 03:40:32;;;;;;;12.13;3.38;;;35.60;15.80;;;;;;5073376;28;20057;-61
2023/07/08 03:42:58;;;;;;;11.07;3.45;;;35.60;16.00;;;;;;5076056;28;20053;-59
2023/07/08 03:45:26;;;;;;;12.73;4.30;;;35.60;16.20;;;;;;5077882;28;20528;-60
2023/07/08 03:47:53;;;;;;;21.23;4.30;;;35.50;16.40;;;;;;5075705;28;20526;-58
2023/07/08 03:50:23;;;;;;;14.68;4.07;;;35.40;16.70;;;;;;5076050;28;20190;-60
2023/07/08 03:52:52;;;;;;;15.27;4.72;;;35.40;16.30;;;;;;5072941;28;20061;-60
2023/07/08 03:55:18;;;;;;;15.07;5.65;;;35.30;16.30;;;;;;5076730;28;20543;-61
2023/07/08 03:57:45;;;;;;;13.70;5.53;;;35.20;16.00;;;;;;5081225;28;20079;-61
2023/07/08 04:00:12;;;;;;;14.32;5.10;;;35.10;16.50;;;;;;5082026;28;20099;-59
2023/07/08 04:02:40;;;;;;;16.80;6.40;;;35.00;16.80;;;;;;5080440;28;20059;-60
2023/07/08 04:05:09;;;;;;;21.23;8.15;;;35.00;17.00;;;;;;5078245;28;20555;-61
2023/07/08 04:07:36;;;;;;;15.00;8.40;;;34.80;17.10;;;;;;5078862;28;20056;-63
2023/07/08 04:10:02;;;;;;;18.65;8.77;;;34.80;17.10;;;;;;5075585;28;20059;-60
2023/07/08 04:12:28;;;;;;;26.00;10.32;;;34.70;17.70;;;;;;5073942;28;20070;-61
2023/07/08 04:14:55;;;;;;;26.35;10.52;;;34.50;17.50;;;;;;5053921;28;20067;-60
2023/07/08 04:17:23;;;;;;;14.60;8.88;;;34.50;17.70;;;;;;5080472;28;20090;-59
2023/07/08 04:19:50;;;;;;;24.20;9.77;;;34.40;18.00;;;;;;5078770;28;20062;-62
2023/07/08 04:22:17;;;;;;;16.63;7.95;;;34.30;18.50;;;;;;5074893;28;20057;-59
2023/07/08 04:24:44;;;;;;;19.00;7.82;;;34.20;18.90;;;;;;5078535;28;20086;-58
2023/07/08 04:27:19;;;;;;;17.95;7.63;;;34.20;19.20;;;;;;5075297;28;20147;-54
2023/07/08 04:29:46;;;;;;;25.15;7.53;;;34.00;19.60;;;;;;5078721;28;20491;-58
2023/07/08 04:32:12;;;;;;;20.08;7.85;;;33.90;19.40;;;;;;5075134;28;20730;-60
2023/07/08 04:34:39;;;;;;;19.95;7.57;;;33.90;19.80;;;;;;5079001;28;20180;-62
2023/07/08 04:37:05;;;;;;;22.15;7.63;;;33.70;19.60;;;;;;5078639;28;20560;-62
2023/07/08 04:39:32;;;;;;;21.00;8.70;;;33.60;20.00;;;;;;5060599;28;20083;-61
2023/07/08 04:41:58;;;;;;;25.48;8.40;;;33.70;19.80;;;;;;5077439;28;20066;-63
2023/07/08 04:44:27;;;;;;;18.67;8.10;;;33.60;19.40;;;;;;5073978;28;20060;-60
2023/07/08 04:46:56;;;;;;;21.95;8.10;;;33.60;19.90;;;;;;5076036;28;20189;-61
2023/07/08 04:49:24;;;;;;;23.13;8.52;;;33.60;19.70;;;;;;5072056;28;20066;-63
2023/07/08 04:51:51;;;;;;;16.60;7.80;;;33.60;19.70;;;;;;5075456;28;20492;-61
2023/07/08 04:54:18;;;;;;;21.02;8.02;;;33.60;19.90;;;;;;5072340;28;20555;-64
2023/07/08 04:56:48;;;;;;;13.75;6.63;;;33.50;20.00;;;;;;5071254;28;20075;-63
2023/07/08 04:59:16;;;;;;;20.80;6.75;;;33.40;20.40;;;;;;5072242;28;20083;-60
2023/07/08 05:01:46;;;;;;;15.65;5.80;;;33.30;20.70;;;;;;5077986;28;20478;-61
2023/07/08 05:04:17;;;;;;;16.80;6.00;;;33.30;21.10;;;;;;5072109;28;20430;-62
2023/07/08 05:06:44;;;;;;;13.63;5.40;;;33.10;21.20;;;;;;5077932;28;20057;-62
2023/07/08 05:09:11;;;;;;;16.23;5.18;;;33.10;21.50;;;;;;5080377;28;20069;-63
2023/07/08 05:11:37;;;;;;;10.95;4.22;;;33.00;21.80;;;;;;5073016;28;20065;-58
2023/07/08 05:14:04;;;;;;;19.33;5.10;;;32.90;22.00;;;;;;5072961;28;20068;-62
2023/07/08 05:16:34;;;;;;;16.50;5.15;;;32.80;22.20;;;;;;5073770;28;20102;-59
2023/07/08 05:19:01;;;;;;;12.82;5.03;;;32.80;22.30;;;;;;5074494;28;20122;-59
2023/07/08 05:21:33;;;;;;;7.65;3.97;;;32.80;21.90;;;;;;5070173;28;20061;-62
2023/07/08 05:24:04;;;;;;;11.88;3.90;;;32.70;22.10;;;;;;5078740;28;20083;-57
2023/07/08 05:26:31;;;;;;;8.15;3.70;;;32.60;22.10;;;;;;5071263;28;20073;-63
2023/07/08 05:28:57;;;;;;;12.25;3.80;;;32.60;22.20;;;;;;5070804;28;20078;-63
2023/07/08 05:31:24;;;;;;;11.77;3.80;;;32.50;22.20;;;;;;5076428;28;20209;-62
2023/07/08 05:33:50;;;;;;;9.15;3.60;;;32.50;22.60;;;;;;5072632;28;20081;-61
2023/07/08 05:36:17;;;;;;;8.95;3.25;;;32.40;22.70;;;;;;5073438;28;20076;-61
2023/07/08 05:38:43;;;;;;;12.60;3.50;;;32.30;22.50;;;;;;5070974;28;20111;-62
2023/07/08 05:41:12;;;;;;;8.95;3.65;;;32.30;22.20;;;;;;5074213;28;20065;-63
2023/07/08 05:43:38;;;;;;;11.90;3.65;;;32.20;21.90;;;;;;5079458;28;20070;-59
2023/07/08 05:46:05;;;;;;;11.48;3.78;;;32.20;21.90;;;;;;5081816;28;20502;-62
2023/07/08 05:48:31;;;;;;;9.15;4.03;;;32.20;22.10;;;;;;5081206;28;20065;-61
2023/07/08 05:50:57;;;;;;;15.63;3.90;;;32.10;21.80;;;;;;5073591;28;20157;-62
2023/07/08 05:53:24;;;;;;;8.18;2.92;;;32.10;21.50;;;;;;5078289;28;20074;-63
2023/07/08 05:55:50;;;;;;;10.38;3.47;;;32.10;21.90;;;;;;5070480;28;20080;-60
2023/07/08 05:58:17;;;;;;;23.13;4.15;;;32.00;21.50;;;;;;5074455;28;20086;-64
2023/07/08 06:00:44;;;;;;;10.90;3.00;;;32.10;21.70;;;;;;5076615;28;20087;-62
2023/07/08 06:03:11;;;;;;;9.57;4.20;;;32.00;22.00;;;;;;5073796;28;20067;-60
2023/07/08 06:05:38;;;;;;;11.00;3.38;;;32.00;22.00;;;;;;5072360;28;20077;-61
2023/07/08 06:08:07;;;;;;;11.27;3.42;;;31.90;22.30;;;;;;5069804;28;20852;-58
2023/07/08 06:10:33;;;;;;;8.02;2.83;;;31.90;22.20;;;;;;5081213;28;20099;-62
2023/07/08 06:13:00;;;;;;;23.05;4.13;;;31.90;22.40;;;;;;5080702;28;20067;-63
2023/07/08 06:15:26;;;;;;;11.77;3.00;;;31.80;22.70;;;;;;5077533;28;20073;-60
2023/07/08 06:17:53;;;;;;;8.13;3.15;;;31.70;22.70;;;;;;5071111;28;20104;-59
2023/07/08 06:20:19;;;;;;;9.77;3.10;;;31.70;22.50;;;;;;5073591;28;20079;-59
2023/07/08 06:22:45;;;;;;;11.32;2.65;;;31.70;22.30;;;;;;5079823;28;20153;-61
2023/07/08 06:25:12;;;;;;;5.78;2.15;;;31.70;22.70;;;;;;5076220;28;20082;-61
2023/07/08 06:27:38;;;;;;;8.43;2.78;;;31.60;22.60;;;;;;5074543;28;20070;-60
2023/07/08 06:30:05;;;;;;;6.88;2.92;;;31.60;22.60;;;;;;5077875;28;20076;-61
2023/07/08 06:32:32;;;;;;;10.07;2.95;;;31.60;22.20;;;;;;5077959;28;20167;-61
2023/07/08 06:34:58;;;;;;;5.82;2.58;;;31.50;22.50;;;;;;5073894;28;20542;-61
2023/07/08 06:37:24;;;;;;;7.85;2.75;;;31.50;22.70;;;;;;5075780;28;20185;-58
2023/07/08 06:39:51;;;;;;;9.88;3.10;;;31.40;23.00;;;;;;5078869;28;20065;-65
2023/07/08 06:42:18;;;;;;;12.45;3.85;;;31.40;23.10;;;;;;5076477;28;20074;-61
2023/07/08 06:44:50;;;;;;;6.72;2.88;;;31.40;23.00;;;;;;5076047;28;20147;-60
2023/07/08 06:47:21;;;;;;;12.85;2.70;;;31.30;22.80;;;;;;5071860;28;20545;-59
2023/07/08 06:49:48;;;;;;;5.65;2.40;;;31.20;22.50;;;;;;5071736;28;20083;-59
2023/07/08 06:52:15;;;;;;;12.63;2.67;;;31.10;22.70;;;;;;5072065;28;20454;-61
2023/07/08 06:54:41;;;;;;;7.07;2.53;;;31.10;23.60;;;;;;5070679;28;20102;-61
2023/07/08 06:57:07;;;;;;;9.93;3.10;;;31.10;22.90;;;;;;5069463;28;20072;-61
2023/07/08 06:59:34;;;;;;;7.03;3.00;;;31.00;22.50;;;;;;5070090;28;20103;-63
2023/07/08 07:02:01;;;;;;;8.27;2.78;;;31.00;22.30;;;;;;5070648;28;20075;-60
2023/07/08 07:04:30;;;;;;;5.80;2.70;;;31.00;22.70;;;;;;5072045;28;20072;-59
2023/07/08 07:06:56;;;;;;;8.35;2.90;;;31.00;22.60;;;;;;5074916;28;20079;-62
2023/07/08 07:09:23;;;;;;;8.63;2.95;;;30.90;22.90;;;;;;5075758;28;20099;-61
2023/07/08 07:11:49;;;;;;;8.20;3.20;;;30.90;23.20;;;;;;5079820;28;20082;-61
2023/07/08 07:14:16;;;;;;;13.98;2.97;;;30.90;23.20;;;;;;5076565;28;20130;-61
2023/07/08 07:16:42;;;;;;;7.78;3.25;;;30.80;22.80;;;;;;5074222;28;20178;-60
2023/07/08 07:19:08;;;;;;;7.82;2.80;;;30.70;23.10;;;;;;5076334;28;20184;-61
2023/07/08 07:21:35;;;;;;;14.80;2.85;;;30.70;23.10;;;;;;5072881;28;20074;-60
2023/07/08 07:24:01;;;;;;;16.42;3.35;;;30.60;23.30;;;;;;5083240;28;20081;-60
2023/07/08 07:26:28;;;;;;;11.13;3.30;;;30.50;23.30;;;;;;5081082;28;20159;-59
2023/07/08 07:28:54;;;;;;;15.95;3.42;;;30.50;23.60;;;;;;5081491;28;20104;-60
2023/07/08 07:31:20;;;;;;;8.93;3.15;;;30.40;24.10;;;;;;5079821;28;20076;-61
2023/07/08 07:33:47;;;;;;;9.40;3.10;;;30.30;24.40;;;;;;5081212;28;21411;-62
2023/07/08 07:36:13;;;;;;;11.02;3.30;;;30.30;24.70;;;;;;5076577;28;20079;-61
2023/07/08 07:38:40;;;;;;;8.80;3.30;;;30.20;24.50;;;;;;5076178;28;20104;-62
2023/07/08 07:41:10;;;;;;;11.18;3.22;;;30.20;24.30;;;;;;5074507;28;20093;-61
2023/07/08 07:43:36;;;;;;;9.13;2.92;;;30.00;25.80;;;;;;5073006;28;20120;-60
2023/07/08 07:46:05;;;;;;;13.38;3.53;;;29.90;25.60;;;;;;5072291;28;20407;-61
2023/07/08 07:48:32;;;;;;;14.50;3.40;;;29.80;26.00;;;;;;5073451;28;20082;-59
2023/07/08 07:50:58;;;;;;;12.85;3.33;;;29.80;26.20;;;;;;5079135;28;20089;-61
2023/07/08 07:53:25;;;;;;;10.63;5.05;;;29.70;26.30;;;;;;5072903;28;20081;-61
2023/07/08 07:55:59;;;;;;;17.10;5.63;;;29.60;26.90;;;;;;5072433;28;20073;-60
2023/07/08 07:58:25;;;;;;;11.27;5.68;;;29.50;26.30;;;;;;5072003;28;20206;-61
2023/07/08 08:00:52;;;;;;;16.27;5.57;;;29.50;26.30;;;;;;5072928;28;20070;-62
2023/07/08 08:03:19;;;;;;;13.75;3.53;;;29.40;25.60;;;;;;5076654;28;20082;-63
2023/07/08 08:05:45;;;;;;;15.13;3.33;;;29.40;25.90;;;;;;5076341;28;20171;-62
2023/07/08 08:08:12;;;;;;;15.38;6.13;;;29.40;25.30;;;;;;5063867;28;20083;-62
2023/07/08 08:10:38;;;;;;;14.73;4.72;;;29.30;25.30;;;;;;5080071;28;20113;-62
2023/07/08 08:13:05;;;;;;;9.57;3.58;;;29.20;25.20;;;;;;5074535;28;20079;-60
2023/07/08 08:15:31;;;;;;;12.93;3.45;;;29.30;24.80;;;;;;5077885;28;20070;-60
2023/07/08 08:17:58;;;;;;;7.28;3.03;;;29.30;24.80;;;;;;5069892;28;20102;-62
2023/07/08 08:20:26;;;;;;;8.63;3.20;;;29.30;24.60;;;;;;5071678;28;20083;-60
2023/07/08 08:22:53;;;;;;;13.57;3.22;;;29.30;24.50;;;;;;5077744;28;20088;-60
2023/07/08 08:25:22;;;;;;;7.80;2.97;;;29.10;24.90;;;;;;5074811;28;20074;-60
2023/07/08 08:27:48;;;;;;;16.27;3.75;;;29.10;25.50;;;;;;5075389;28;20074;-61
2023/07/08 08:30:15;;;;;;;9.80;3.38;;;29.20;25.40;;;;;;5074760;28;20091;-60
2023/07/08 08:32:41;;;;;;;8.10;3.25;;;29.20;25.20;;;;;;5076826;28;20088;-61
2023/07/08 08:35:08;;;;;;;7.35;3.05;;;29.20;24.80;;;;;;5076684;28;21082;-62
2023/07/08 08:37:35;;;;;;;9.65;3.10;;;29.20;24.40;;;;;;5075162;28;20111;-60
2023/07/08 08:40:01;;;;;;;7.30;3.00;;;29.20;24.20;;;;;;5077702;28;20137;-61
2023/07/08 08:43:05;;;;;;;11.50;3.50;;;29.20;24.40;;;;;;5074053;28;20614;-62
2023/07/08 08:46:00;;;;;;;10.15;4.80;;;29.20;24.00;;;;;;5070743;28;20547;-61
2023/07/08 08:48:29;;;;;;;9.65;4.03;;;29.20;24.20;;;;;;5070151;28;20075;-62
2023/07/08 08:51:04;;;;;;;8.52;4.32;;;29.10;24.50;;;;;;5085398;28;20086;-61
2023/07/08 08:53:30;;;;;;;5.80;3.28;;;29.00;24.70;;;;;;5075258;28;20559;-61
2023/07/08 08:56:24;;;;;;;14.25;3.42;;;29.00;24.50;;;;;;5077051;28;20084;-62
2023/07/08 08:58:53;;;;;;;8.30;3.63;;;28.90;24.70;;;;;;5076407;28;20162;-62
2023/07/08 09:01:20;;;;;;;4.93;3.17;;;28.90;25.00;;;;;;5072715;28;20547;-62
2023/07/08 09:04:03;;;;;;;8.73;3.47;;;28.90;24.70;;;;;;5080850;28;20081;-65
2023/07/08 09:06:34;;;;;;;7.40;3.20;;;28.90;24.80;;;;;;5082181;28;20531;-60
2023/07/08 09:09:16;;;;;;;10.70;3.67;;;28.80;24.40;;;;;;5077359;28;20170;-65
2023/07/08 09:11:42;;;;;;;8.18;3.40;;;28.80;25.00;;;;;;5077931;28;20082;-62
2023/07/08 09:14:20;;;;;;;9.05;3.20;;;28.80;24.70;;;;;;5071469;28;20546;-63
2023/07/08 09:16:52;;;;;;;9.02;3.30;;;28.80;25.10;;;;;;5075887;28;20591;-60
2023/07/08 09:19:30;;;;;;;6.93;3.40;;;28.80;25.10;;;;;;5074402;28;20095;-61
2023/07/08 09:22:26;;;;;;;10.38;3.30;;;28.70;25.20;;;;;;5072380;28;20079;-62
2023/07/08 09:25:37;;;;;;;8.82;3.45;;;28.80;25.40;;;;;;5074080;28;20074;-61
2023/07/08 09:28:03;;;;;;;9.55;3.50;;;28.80;25.40;;;;;;5003090;28;20117;-60
2023/07/08 09:30:30;;;;;;;9.82;4.03;;;28.80;25.40;;;;;;5004438;28;20088;-65
2023/07/08 09:33:01;;;;;;;7.95;3.63;;;28.70;24.90;;;;;;5005212;28;20237;-63
2023/07/08 09:35:38;;;;;;;14.27;4.10;;;28.70;24.60;;;;;;5003792;28;20227;-61
2023/07/08 09:38:08;;;;;;;10.20;3.20;;;28.70;25.10;;;;;;5003403;28;20104;-64
2023/07/08 09:40:35;;;;;;;11.30;3.60;;;28.70;24.60;;;;;;5004410;28;20080;-61
2023/07/08 09:43:15;;;;;;;10.40;4.00;;;28.70;25.00;;;;;;5002990;28;20083;-60
2023/07/08 09:45:45;;;;;;;13.27;4.03;;;28.70;24.90;;;;;;5004266;28;20167;-63
2023/07/08 09:48:27;;;;;;;7.53;3.47;;;28.70;24.80;;;;;;5003428;28;20634;-62
2023/07/08 09:50:56;;;;;;;7.47;3.58;;;28.70;24.90;;;;;;5002309;28;20087;-59
2023/07/08 09:53:22;;;;;;;11.07;4.00;;;28.60;25.30;;;;;;5004748;28;20100;-64
2023/07/08 09:55:53;;;;;;;8.70;3.83;;;28.50;25.20;;;;;;5003924;28;20872;-64
2023/07/08 09:58:27;;;;;;;7.13;3.50;;;28.50;25.40;;;;;;5031150;28;20113;-66
2023/07/08 10:01:09;;;;;;;8.80;3.30;;;28.40;25.60;;;;;;5077673;28;20078;-65
2023/07/08 10:03:36;;;;;;;14.43;3.83;;;28.40;25.90;;;;;;5072546;28;20077;-61
2023/07/08 10:06:16;;;;;;;6.75;3.22;;;28.40;25.70;;;;;;5063181;28;20086;-60
2023/07/08 10:08:44;;;;;;;11.55;3.40;;;28.40;24.90;;;;;;5073171;28;20551;-61
2023/07/08 10:11:35;;;;;;;8.35;2.92;;;28.40;25.30;;;;;;5078882;28;20082;-63
2023/07/08 10:14:11;;;;;;;9.07;3.33;;;28.40;25.10;;;;;;5072229;28;20083;-62
2023/07/08 10:16:38;;;;;;;9.90;3.70;;;28.40;25.40;;;;;;5073957;28;20127;-63
2023/07/08 10:19:15;;;;;;;11.27;3.67;;;28.40;25.80;;;;;;5076429;28;20113;-57
2023/07/08 10:21:52;;;;;;;9.82;3.00;;;28.30;25.50;;;;;;5054515;28;20080;-62
2023/07/08 10:24:27;;;;;;;9.85;3.90;;;28.20;25.90;;;;;;5076380;28;20090;-58
2023/07/08 10:27:16;;;;;;;9.48;3.58;;;28.20;25.40;;;;;;5073403;28;20099;-63
2023/07/08 10:30:08;;;;;;;10.93;3.40;;;28.20;25.50;;;;;;5072799;28;20680;-59
2023/07/08 10:32:40;;;;;;;6.47;3.20;;;28.10;26.40;;;;;;5073071;28;20145;-61
2023/07/08 10:35:26;;;;;;;6.97;3.20;;;28.00;26.00;;;;;;5071848;28;20110;-63
2023/07/08 10:38:04;;;;;;;4.28;2.90;;;28.10;25.70;;;;;;5071120;28;20124;-58
2023/07/08 10:40:52;;;;;;;5.78;3.15;;;28.00;26.30;;;;;;5070018;28;20083;-60
2023/07/08 10:43:43;;;;;;;10.52;3.35;;;28.00;26.00;;;;;;5068199;28;20488;-61
2023/07/08 10:46:16;;;;;;;6.70;2.83;;;28.00;25.70;;;;;;5070092;28;20076;-60
2023/07/08 10:48:51;;;;;;;5.75;3.05;;;27.90;26.90;;;;;;5069786;28;20213;-61
2023/07/08 10:51:44;;;;;;;7.68;3.10;;;28.00;26.80;;;;;;5074186;28;20082;-59
2023/07/08 10:54:13;;;;;;;7.25;3.30;;;28.00;26.20;;;;;;5077869;28;20643;-63
2023/07/08 10:56:39;;;;;;;9.25;3.17;;;27.90;26.10;;;;;;5078820;28;20075;-62
2023/07/08 10:59:34;;;;;;;10.05;3.35;;;27.90;26.90;;;;;;5070432;28;20107;-61
2023/07/08 11:02:03;;;;;;;8.45;3.60;;;27.90;27.00;;;;;;5072091;28;20076;-59
2023/07/08 11:04:49;;;;;;;11.13;4.07;;;27.80;26.40;;;;;;5076469;28;20071;-58
2023/07/08 11:07:48;;;;;;;8.35;3.67;;;27.80;26.60;;;;;;5073127;28;20079;-59
2023/07/08 11:10:47;;;;;;;10.43;3.60;;;27.80;27.10;;;;;;5063710;28;20629;-63
2023/07/08 11:13:17;;;;;;;7.75;3.58;;;27.70;27.30;;;;;;5062762;28;20099;-62
2023/07/08 11:15:51;;;;;;;8.38;3.17;;;27.70;26.90;;;;;;5066746;28;20167;-60
2023/07/08 11:18:40;;;;;;;16.73;3.70;;;27.60;27.00;;;;;;5076665;28;20107;-62
2023/07/08 11:21:21;;;;;;;9.20;3.65;;;27.50;27.30;;;;;;5078726;28;20209;-63
2023/07/08 11:23:54;;;;;;;7.78;3.47;;;27.40;27.30;;;;;;5071648;28;20091;-62
2023/07/08 11:26:29;;;;;;;13.40;3.70;;;27.40;27.00;;;;;;5073301;28;20084;-63
2023/07/08 11:28:58;;;;;;;13.15;3.35;;;27.30;27.10;;;;;;5073989;28;20079;-60
2023/07/08 11:31:27;;;;;;;10.60;4.07;;;27.30;26.70;;;;;;5071385;28;20167;-62
2023/07/08 11:33:56;;;;;;;17.23;4.35;;;27.30;27.10;;;;;;5066713;28;20171;-62
2023/07/08 11:36:25;;;;;;;39.47;8.00;;;27.30;26.70;;;;;;5071431;28;20467;-66
2023/07/08 11:38:56;;;;;;;32.45;8.38;;;27.30;26.60;;;;;;5056281;28;20095;-63
2023/07/08 11:41:26;;;;;;;27.65;7.53;;;27.30;26.90;;;;;;5072955;28;20072;-62
2023/07/08 11:43:57;;;;;;;29.75;8.73;;;27.30;27.10;;;;;;5071576;28;20106;-63
2023/07/08 11:46:32;;;;;;;39.40;9.90;;;27.30;27.30;;;;;;5071544;28;20080;-65
2023/07/08 11:49:19;;;;;;;51.70;11.48;;;27.20;27.30;;;;;;5072456;28;20088;-62
2023/07/08 11:51:47;;;;;;;40.10;11.73;;;27.20;27.30;;;;;;5084582;28;20554;-60
2023/07/08 11:54:15;;;;;;;43.20;11.30;;;27.10;27.40;;;;;;5080367;28;20087;-62
2023/07/08 11:57:00;;;;;;;48.45;12.93;;;27.10;28.10;;;;;;5079872;28;20174;-62
2023/07/08 11:59:36;;;;;;;49.25;13.43;;;27.10;29.30;;;;;;5075115;28;20567;-60
2023/07/08 12:02:22;;;;;;;43.75;12.73;;;27.00;28.20;;;;;;5076457;28;20080;-61
2023/07/08 12:05:11;;;;;;;45.53;12.70;;;27.10;28.30;;;;;;5069529;28;20083;-58
2023/07/08 12:07:53;;;;;;;42.58;12.45;;;27.00;28.30;;;;;;5075350;28;20079;-61
2023/07/08 12:10:33;;;;;;;44.42;12.55;;;26.90;29.70;;;;;;5076856;28;20071;-61
2023/07/08 12:12:59;;;;;;;60.75;12.90;;;26.70;29.40;;;;;;5065519;28;20122;-59
2023/07/08 12:15:34;;;;;;;46.05;13.40;;;26.70;29.80;;;;;;5076661;28;20119;-58
2023/07/08 12:18:22;;;;;;;57.03;13.10;;;26.70;29.40;;;;;;5074935;28;20111;-59
2023/07/08 12:20:58;;;;;;;47.17;13.60;;;26.70;30.10;;;;;;5073436;28;20518;-60
2023/07/08 12:23:27;;;;;;;45.92;13.65;;;26.60;31.70;;;;;;5061419;28;20493;-60
2023/07/08 12:25:55;;;;;;;51.15;13.27;;;26.60;30.90;;;;;;5071510;28;20714;-58
2023/07/08 12:28:22;;;;;;;60.03;14.93;;;26.60;30.40;;;;;;5071709;28;20091;-61
2023/07/08 12:30:50;;;;;;;53.53;14.23;;;26.60;30.30;;;;;;5082457;28;20087;-60
2023/07/08 12:33:32;;;;;;;52.78;15.52;;;26.50;30.60;;;;;;5077724;28;20451;-59
2023/07/08 12:36:01;;;;;;;56.67;15.55;;;26.60;30.90;;;;;;5076472;28;20594;-58
2023/07/08 12:38:35;;;;;;;65.22;17.05;;;26.60;32.80;;;;;;5076393;28;20146;-62
2023/07/08 12:41:08;;;;;;;59.22;18.77;;;26.50;32.30;;;;;;5071183;28;20091;-59
2023/07/08 12:43:34;;;;;;;74.55;20.27;;;26.40;32.50;;;;;;5071254;28;20095;-59
2023/07/08 12:46:03;;;;;;;50.60;19.02;;;26.50;32.10;;;;;;5079667;28;20071;-62
2023/07/08 12:48:34;;;;;;;68.72;18.75;;;26.40;31.20;;;;;;5077736;28;20079;-61
2023/07/08 12:51:02;;;;;;;68.10;20.20;;;26.40;31.50;;;;;;5078815;28;20104;-64
2023/07/08 12:53:28;;;;;;;60.78;21.35;;;26.40;31.70;;;;;;5073386;28;20087;-58
2023/07/08 12:55:58;;;;;;;77.63;22.63;;;26.40;32.10;;;;;;5070121;28;20086;-60
2023/07/08 12:58:34;;;;;;;69.90;22.50;;;26.50;32.80;;;;;;5073908;28;20570;-61